Terminal Aerodrome Forecast
Issued by NWS

Home | Current Version | Previous Version | Text Only | Print | Product List | Glossary Off
Versions: 1 2 3 4 5 6 7 8 9 10 11 12

063
FTUS43 KGRB 212325
TAFMTW
TAF
KMTW 212325Z 2200/2224 13007KT P6SM SKC
     FM220200 22004KT P6SM FEW100
     FM220800 33004KT P6SM SKC
     FM221200 03005KT P6SM SKC
     FM221900 12007KT P6SM SKC=

USA.gov is the U.S. government's official web portal to all federal, state and local government web resources and services.